ZOS weather

Cañal Bajo Carlos - Hott Siebert Airport
Osorno, Los Lagos Region, Chile

Public forecast

Using degrees Celsius for public forecast. Weather courtesy of forecast.io.

Current aviation weather report (METAR) for Cañal Bajo Carlos - Hott Siebert Airport

Retrieved 2020/01/17 18:00 UTC (15 minutes ago):

SCJO 171800Z 18015KT CAVOK 23/14 Q1015

Aviation forecast (TAF) for Cañal Bajo Carlos - Hott Siebert Airport

Retrieved 2020/01/17 12:33 UTC (6 hours ago):

TAF SCJO 171012Z 1712/1724 19015KT 9999 BKN040 TN10/1712Z TX24/1719Z BECMG 1715/1717 CAVOK TEMPO 1715/1718 18015G25KT